sensor_id;sensor_type;location;lat;lon;timestamp;P1;durP1;ratioP1;P2;durP2;ratioP2
70153;SDS011;57519;51.494;-2.626;2023-04-03T00:01:18;17.58;;;7.28;;
70153;SDS011;57519;51.494;-2.626;2023-04-03T00:03:44;15.02;;;7.45;;
70153;SDS011;57519;51.494;-2.626;2023-04-03T00:06:12;12.10;;;6.40;;
70153;SDS011;57519;51.494;-2.626;2023-04-03T00:08:41;15.87;;;7.03;;
70153;SDS011;57519;51.494;-2.626;2023-04-03T00:11:14;15.05;;;6.07;;
70153;SDS011;57519;51.494;-2.626;2023-04-03T00:13:40;19.13;;;6.70;;
70153;SDS011;57519;51.494;-2.626;2023-04-03T00:16:07;14.25;;;6.38;;
70153;SDS011;57519;51.494;-2.626;2023-04-03T00:18:38;16.08;;;6.47;;
70153;SDS011;57519;51.494;-2.626;2023-04-03T00:21:05;14.93;;;6.10;;
70153;SDS011;57519;51.494;-2.626;2023-04-03T00:23:31;12.60;;;6.25;;
70153;SDS011;57519;51.494;-2.626;2023-04-03T00:25:57;16.10;;;6.97;;
70153;SDS011;57519;51.494;-2.626;2023-04-03T00:28:23;21.07;;;6.90;;
70153;SDS011;57519;51.494;-2.626;2023-04-03T00:30:49;12.35;;;6.18;;
70153;SDS011;57519;51.494;-2.626;2023-04-03T00:33:15;10.37;;;6.30;;
70153;SDS011;57519;51.494;-2.626;2023-04-03T00:35:46;17.02;;;7.10;;
70153;SDS011;57519;51.494;-2.626;2023-04-03T00:38:13;12.27;;;6.82;;
70153;SDS011;57519;51.494;-2.626;2023-04-03T00:40:42;20.17;;;8.07;;
70153;SDS011;57519;51.494;-2.626;2023-04-03T00:43:19;16.20;;;6.60;;
70153;SDS011;57519;51.494;-2.626;2023-04-03T00:45:50;14.03;;;6.23;;
70153;SDS011;57519;51.494;-2.626;2023-04-03T00:51:09;17.45;;;6.63;;
70153;SDS011;57519;51.494;-2.626;2023-04-03T00:53:44;19.70;;;6.68;;
70153;SDS011;57519;51.494;-2.626;2023-04-03T00:56:19;12.68;;;6.35;;
70153;SDS011;57519;51.494;-2.626;2023-04-03T00:58:51;13.67;;;6.27;;
70153;SDS011;57519;51.494;-2.626;2023-04-03T01:01:28;16.17;;;7.30;;
70153;SDS011;57519;51.494;-2.626;2023-04-03T01:04:03;18.70;;;6.95;;
70153;SDS011;57519;51.494;-2.626;2023-04-03T01:06:37;23.67;;;8.77;;
70153;SDS011;57519;51.494;-2.626;2023-04-03T01:09:08;19.77;;;7.82;;
70153;SDS011;57519;51.494;-2.626;2023-04-03T01:11:40;17.00;;;7.27;;
70153;SDS011;57519;51.494;-2.626;2023-04-03T01:14:10;21.45;;;7.65;;
70153;SDS011;57519;51.494;-2.626;2023-04-03T01:16:56;19.55;;;7.72;;
70153;SDS011;57519;51.494;-2.626;2023-04-03T01:19:43;15.55;;;7.70;;
70153;SDS011;57519;51.494;-2.626;2023-04-03T02:02:08;14.50;;;7.30;;
70153;SDS011;57519;51.494;-2.626;2023-04-03T02:04:42;19.80;;;9.00;;
70153;SDS011;57519;51.494;-2.626;2023-04-03T02:07:08;22.30;;;8.37;;
70153;SDS011;57519;51.494;-2.626;2023-04-03T02:16:18;14.00;;;7.30;;
70153;SDS011;57519;51.494;-2.626;2023-04-03T02:18:44;20.17;;;7.82;;
70153;SDS011;57519;51.494;-2.626;2023-04-03T02:21:09;24.87;;;8.30;;
70153;SDS011;57519;51.494;-2.626;2023-04-03T02:23:35;17.63;;;7.22;;
70153;SDS011;57519;51.494;-2.626;2023-04-03T02:26:05;16.80;;;7.80;;
70153;SDS011;57519;51.494;-2.626;2023-04-03T02:28:32;9.37;;;6.80;;
70153;SDS011;57519;51.494;-2.626;2023-04-03T02:30:58;12.07;;;6.32;;
70153;SDS011;57519;51.494;-2.626;2023-04-03T02:33:24;18.52;;;7.32;;
70153;SDS011;57519;51.494;-2.626;2023-04-03T02:35:54;21.03;;;8.03;;
70153;SDS011;57519;51.494;-2.626;2023-04-03T02:38:20;20.25;;;7.88;;
70153;SDS011;57519;51.494;-2.626;2023-04-03T02:40:47;17.73;;;7.68;;
70153;SDS011;57519;51.494;-2.626;2023-04-03T02:43:12;16.20;;;7.50;;
70153;SDS011;57519;51.494;-2.626;2023-04-03T02:45:38;21.70;;;8.68;;
70153;SDS011;57519;51.494;-2.626;2023-04-03T02:48:04;18.50;;;8.40;;
70153;SDS011;57519;51.494;-2.626;2023-04-03T02:50:29;9.00;;;6.32;;
70153;SDS011;57519;51.494;-2.626;2023-04-03T02:53:01;12.23;;;7.20;;
70153;SDS011;57519;51.494;-2.626;2023-04-03T02:55:26;10.77;;;6.35;;
70153;SDS011;57519;51.494;-2.626;2023-04-03T02:57:52;12.43;;;7.40;;
70153;SDS011;57519;51.494;-2.626;2023-04-03T03:00:17;15.93;;;8.23;;
70153;SDS011;57519;51.494;-2.626;2023-04-03T03:02:44;16.35;;;8.43;;
70153;SDS011;57519;51.494;-2.626;2023-04-03T03:05:09;14.93;;;7.90;;
70153;SDS011;57519;51.494;-2.626;2023-04-03T03:07:35;15.93;;;7.65;;
70153;SDS011;57519;51.494;-2.626;2023-04-03T03:10:00;19.23;;;8.47;;
70153;SDS011;57519;51.494;-2.626;2023-04-03T03:12:26;13.90;;;7.33;;
70153;SDS011;57519;51.494;-2.626;2023-04-03T03:14:51;11.10;;;7.37;;
70153;SDS011;57519;51.494;-2.626;2023-04-03T03:17:17;13.80;;;7.07;;
70153;SDS011;57519;51.494;-2.626;2023-04-03T03:19:42;17.80;;;7.93;;
70153;SDS011;57519;51.494;-2.626;2023-04-03T03:22:08;10.93;;;6.87;;
70153;SDS011;57519;51.494;-2.626;2023-04-03T03:24:37;18.23;;;8.00;;
70153;SDS011;57519;51.494;-2.626;2023-04-03T03:27:02;12.85;;;7.22;;
70153;SDS011;57519;51.494;-2.626;2023-04-03T03:29:30;15.87;;;7.47;;
70153;SDS011;57519;51.494;-2.626;2023-04-03T03:31:59;14.25;;;7.70;;
70153;SDS011;57519;51.494;-2.626;2023-04-03T03:34:27;23.20;;;8.15;;
70153;SDS011;57519;51.494;-2.626;2023-04-03T03:36:58;18.50;;;7.85;;
70153;SDS011;57519;51.494;-2.626;2023-04-03T03:39:24;17.15;;;8.50;;
70153;SDS011;57519;51.494;-2.626;2023-04-03T04:23:55;15.00;;;7.45;;
70153;SDS011;57519;51.494;-2.626;2023-04-03T04:26:21;18.00;;;8.15;;
70153;SDS011;57519;51.494;-2.626;2023-04-03T04:28:46;18.63;;;7.90;;
70153;SDS011;57519;51.494;-2.626;2023-04-03T04:31:12;16.02;;;7.45;;
70153;SDS011;57519;51.494;-2.626;2023-04-03T04:33:41;14.90;;;7.73;;
70153;SDS011;57519;51.494;-2.626;2023-04-03T04:36:11;9.45;;;6.47;;
70153;SDS011;57519;51.494;-2.626;2023-04-03T04:38:45;21.50;;;8.85;;
70153;SDS011;57519;51.494;-2.626;2023-04-03T04:41:11;16.92;;;7.97;;
70153;SDS011;57519;51.494;-2.626;2023-04-03T04:43:37;12.30;;;6.87;;
70153;SDS011;57519;51.494;-2.626;2023-04-03T04:46:07;24.65;;;8.52;;
70153;SDS011;57519;51.494;-2.626;2023-04-03T04:58:05;11.73;;;6.07;;
70153;SDS011;57519;51.494;-2.626;2023-04-03T05:07:32;20.77;;;8.10;;
70153;SDS011;57519;51.494;-2.626;2023-04-03T05:09:57;12.87;;;6.87;;
70153;SDS011;57519;51.494;-2.626;2023-04-03T05:12:23;14.80;;;8.10;;
70153;SDS011;57519;51.494;-2.626;2023-04-03T05:14:49;10.68;;;6.50;;
70153;SDS011;57519;51.494;-2.626;2023-04-03T05:17:14;16.80;;;8.17;;
70153;SDS011;57519;51.494;-2.626;2023-04-03T05:19:40;27.98;;;8.68;;
70153;SDS011;57519;51.494;-2.626;2023-04-03T05:22:05;13.43;;;7.73;;
70153;SDS011;57519;51.494;-2.626;2023-04-03T05:24:31;16.77;;;7.93;;
70153;SDS011;57519;51.494;-2.626;2023-04-03T05:26:59;18.85;;;8.40;;
70153;SDS011;57519;51.494;-2.626;2023-04-03T05:33:00;26.80;;;8.45;;
70153;SDS011;57519;51.494;-2.626;2023-04-03T05:45:40;16.17;;;7.67;;
70153;SDS011;57519;51.494;-2.626;2023-04-03T05:51:39;15.93;;;7.50;;
70153;SDS011;57519;51.494;-2.626;2023-04-03T06:04:19;12.27;;;6.60;;
70153;SDS011;57519;51.494;-2.626;2023-04-03T06:16:11;10.67;;;7.13;;
70153;SDS011;57519;51.494;-2.626;2023-04-03T06:31:29;20.57;;;9.07;;
70153;SDS011;57519;51.494;-2.626;2023-04-03T06:33:54;17.13;;;7.68;;
70153;SDS011;57519;51.494;-2.626;2023-04-03T06:36:24;14.32;;;7.47;;
70153;SDS011;57519;51.494;-2.626;2023-04-03T06:38:50;29.35;;;8.93;;
70153;SDS011;57519;51.494;-2.626;2023-04-03T06:41:16;17.70;;;7.23;;
70153;SDS011;57519;51.494;-2.626;2023-04-03T06:47:03;11.93;;;7.00;;
70153;SDS011;57519;51.494;-2.626;2023-04-03T06:49:29;13.88;;;6.88;;
70153;SDS011;57519;51.494;-2.626;2023-04-03T06:51:55;19.30;;;8.77;;
70153;SDS011;57519;51.494;-2.626;2023-04-03T06:54:23;16.10;;;7.40;;
70153;SDS011;57519;51.494;-2.626;2023-04-03T06:56:49;30.47;;;8.63;;
70153;SDS011;57519;51.494;-2.626;2023-04-03T06:59:15;11.35;;;6.85;;
70153;SDS011;57519;51.494;-2.626;2023-04-03T07:01:42;13.88;;;7.50;;
70153;SDS011;57519;51.494;-2.626;2023-04-03T07:04:07;12.63;;;7.05;;
70153;SDS011;57519;51.494;-2.626;2023-04-03T07:06:35;15.47;;;7.00;;
70153;SDS011;57519;51.494;-2.626;2023-04-03T07:09:01;22.85;;;8.80;;
70153;SDS011;57519;51.494;-2.626;2023-04-03T07:11:29;12.33;;;6.80;;
70153;SDS011;57519;51.494;-2.626;2023-04-03T07:13:55;10.93;;;7.65;;
70153;SDS011;57519;51.494;-2.626;2023-04-03T07:16:40;15.00;;;7.10;;
70153;SDS011;57519;51.494;-2.626;2023-04-03T07:19:06;15.27;;;6.90;;
70153;SDS011;57519;51.494;-2.626;2023-04-03T07:21:33;13.63;;;6.57;;
70153;SDS011;57519;51.494;-2.626;2023-04-03T07:24:02;23.40;;;8.80;;
70153;SDS011;57519;51.494;-2.626;2023-04-03T07:26:38;19.83;;;8.05;;
70153;SDS011;57519;51.494;-2.626;2023-04-03T07:29:06;14.47;;;7.17;;
70153;SDS011;57519;51.494;-2.626;2023-04-03T07:31:32;16.88;;;7.53;;
70153;SDS011;57519;51.494;-2.626;2023-04-03T07:34:06;20.33;;;7.82;;
70153;SDS011;57519;51.494;-2.626;2023-04-03T07:36:32;13.70;;;6.63;;
70153;SDS011;57519;51.494;-2.626;2023-04-03T07:38:58;26.00;;;8.48;;
70153;SDS011;57519;51.494;-2.626;2023-04-03T07:41:24;20.00;;;7.57;;
70153;SDS011;57519;51.494;-2.626;2023-04-03T07:43:49;11.27;;;7.17;;
70153;SDS011;57519;51.494;-2.626;2023-04-03T07:46:15;17.13;;;7.70;;
70153;SDS011;57519;51.494;-2.626;2023-04-03T07:48:42;16.60;;;8.43;;
70153;SDS011;57519;51.494;-2.626;2023-04-03T07:51:08;13.10;;;7.73;;
70153;SDS011;57519;51.494;-2.626;2023-04-03T07:53:34;19.42;;;7.32;;
70153;SDS011;57519;51.494;-2.626;2023-04-03T07:56:00;17.70;;;7.20;;
70153;SDS011;57519;51.494;-2.626;2023-04-03T07:58:27;11.23;;;6.22;;
70153;SDS011;57519;51.494;-2.626;2023-04-03T08:00:53;13.27;;;7.03;;
70153;SDS011;57519;51.494;-2.626;2023-04-03T08:03:19;10.07;;;5.57;;
70153;SDS011;57519;51.494;-2.626;2023-04-03T08:05:46;12.87;;;6.90;;
70153;SDS011;57519;51.494;-2.626;2023-04-03T08:11:36;13.50;;;7.25;;
70153;SDS011;57519;51.494;-2.626;2023-04-03T08:14:04;11.18;;;6.38;;
70153;SDS011;57519;51.494;-2.626;2023-04-03T08:16:29;12.77;;;7.17;;
70153;SDS011;57519;51.494;-2.626;2023-04-03T08:18:55;11.67;;;6.43;;
70153;SDS011;57519;51.494;-2.626;2023-04-03T08:21:20;21.20;;;7.75;;
70153;SDS011;57519;51.494;-2.626;2023-04-03T08:23:47;10.43;;;5.83;;
70153;SDS011;57519;51.494;-2.626;2023-04-03T08:26:16;12.65;;;5.97;;
70153;SDS011;57519;51.494;-2.626;2023-04-03T08:28:43;11.88;;;5.55;;
70153;SDS011;57519;51.494;-2.626;2023-04-03T08:31:10;13.77;;;5.73;;
70153;SDS011;57519;51.494;-2.626;2023-04-03T08:33:38;11.93;;;6.20;;
70153;SDS011;57519;51.494;-2.626;2023-04-03T08:36:14;11.68;;;6.28;;
70153;SDS011;57519;51.494;-2.626;2023-04-03T08:38:42;16.30;;;7.63;;
70153;SDS011;57519;51.494;-2.626;2023-04-03T08:46:40;12.40;;;6.25;;
70153;SDS011;57519;51.494;-2.626;2023-04-03T08:56:09;10.52;;;5.75;;
70153;SDS011;57519;51.494;-2.626;2023-04-03T08:58:48;9.55;;;5.57;;
70153;SDS011;57519;51.494;-2.626;2023-04-03T09:08:06;17.83;;;6.03;;
70153;SDS011;57519;51.494;-2.626;2023-04-03T09:10:52;39.42;;;10.23;;
70153;SDS011;57519;51.494;-2.626;2023-04-03T09:13:36;15.23;;;6.65;;
70153;SDS011;57519;51.494;-2.626;2023-04-03T09:16:27;13.93;;;5.72;;
70153;SDS011;57519;51.494;-2.626;2023-04-03T09:19:02;16.13;;;6.23;;
70153;SDS011;57519;51.494;-2.626;2023-04-03T09:21:55;11.90;;;5.00;;
70153;SDS011;57519;51.494;-2.626;2023-04-03T09:24:22;17.65;;;6.32;;
70153;SDS011;57519;51.494;-2.626;2023-04-03T09:27:18;38.65;;;10.05;;
70153;SDS011;57519;51.494;-2.626;2023-04-03T09:29:43;20.60;;;7.32;;
70153;SDS011;57519;51.494;-2.626;2023-04-03T09:35:35;15.82;;;5.13;;
70153;SDS011;57519;51.494;-2.626;2023-04-03T09:40:40;40.63;;;10.45;;
70153;SDS011;57519;51.494;-2.626;2023-04-03T09:57:08;15.00;;;6.68;;
70153;SDS011;57519;51.494;-2.626;2023-04-03T09:59:37;23.43;;;7.67;;
70153;SDS011;57519;51.494;-2.626;2023-04-03T10:04:55;11.98;;;6.47;;
70153;SDS011;57519;51.494;-2.626;2023-04-03T10:09:56;14.77;;;6.75;;
70153;SDS011;57519;51.494;-2.626;2023-04-03T10:12:28;18.63;;;7.43;;
70153;SDS011;57519;51.494;-2.626;2023-04-03T10:14:58;15.80;;;6.87;;
70153;SDS011;57519;51.494;-2.626;2023-04-03T10:28:05;19.40;;;7.47;;
70153;SDS011;57519;51.494;-2.626;2023-04-03T10:37:00;14.25;;;6.55;;
70153;SDS011;57519;51.494;-2.626;2023-04-03T10:44:31;15.57;;;7.17;;
70153;SDS011;57519;51.494;-2.626;2023-04-03T10:52:50;14.43;;;6.65;;
70153;SDS011;57519;51.494;-2.626;2023-04-03T10:55:35;12.82;;;6.28;;
70153;SDS011;57519;51.494;-2.626;2023-04-03T10:58:06;12.63;;;6.77;;
70153;SDS011;57519;51.494;-2.626;2023-04-03T11:00:42;13.70;;;7.25;;
70153;SDS011;57519;51.494;-2.626;2023-04-03T11:03:56;12.23;;;6.30;;
70153;SDS011;57519;51.494;-2.626;2023-04-03T11:06:04;17.17;;;6.95;;
70153;SDS011;57519;51.494;-2.626;2023-04-03T11:09:07;17.65;;;7.35;;
70153;SDS011;57519;51.494;-2.626;2023-04-03T11:11:32;22.50;;;7.10;;
70153;SDS011;57519;51.494;-2.626;2023-04-03T11:17:33;13.85;;;6.75;;
70153;SDS011;57519;51.494;-2.626;2023-04-03T11:25:40;18.83;;;7.70;;
70153;SDS011;57519;51.494;-2.626;2023-04-03T11:28:16;15.35;;;7.18;;
70153;SDS011;57519;51.494;-2.626;2023-04-03T11:30:50;15.77;;;7.25;;
70153;SDS011;57519;51.494;-2.626;2023-04-03T11:43:28;23.63;;;8.10;;
70153;SDS011;57519;51.494;-2.626;2023-04-03T12:01:10;15.70;;;7.13;;
70153;SDS011;57519;51.494;-2.626;2023-04-03T12:04:05;13.73;;;6.45;;
70153;SDS011;57519;51.494;-2.626;2023-04-03T12:10:00;20.20;;;6.90;;
70153;SDS011;57519;51.494;-2.626;2023-04-03T12:15:50;15.82;;;6.50;;
70153;SDS011;57519;51.494;-2.626;2023-04-03T12:21:18;18.00;;;7.30;;
70153;SDS011;57519;51.494;-2.626;2023-04-03T12:26:48;20.15;;;7.45;;
70153;SDS011;57519;51.494;-2.626;2023-04-03T12:40:26;24.00;;;8.23;;
70153;SDS011;57519;51.494;-2.626;2023-04-03T12:43:24;13.07;;;5.85;;
70153;SDS011;57519;51.494;-2.626;2023-04-03T12:51:53;10.10;;;6.37;;
70153;SDS011;57519;51.494;-2.626;2023-04-03T12:57:46;15.13;;;6.68;;
70153;SDS011;57519;51.494;-2.626;2023-04-03T13:03:34;16.93;;;7.70;;
70153;SDS011;57519;51.494;-2.626;2023-04-03T13:06:02;11.25;;;5.95;;
70153;SDS011;57519;51.494;-2.626;2023-04-03T13:08:29;15.68;;;6.93;;
70153;SDS011;57519;51.494;-2.626;2023-04-03T13:11:00;18.20;;;7.32;;
70153;SDS011;57519;51.494;-2.626;2023-04-03T13:13:31;13.30;;;6.20;;
70153;SDS011;57519;51.494;-2.626;2023-04-03T13:25:43;16.73;;;7.65;;
70153;SDS011;57519;51.494;-2.626;2023-04-03T13:28:12;12.40;;;6.73;;
70153;SDS011;57519;51.494;-2.626;2023-04-03T13:30:41;13.15;;;6.50;;
70153;SDS011;57519;51.494;-2.626;2023-04-03T13:33:22;15.20;;;7.85;;
70153;SDS011;57519;51.494;-2.626;2023-04-03T13:38:46;14.75;;;7.00;;
70153;SDS011;57519;51.494;-2.626;2023-04-03T13:41:53;15.77;;;7.03;;
70153;SDS011;57519;51.494;-2.626;2023-04-03T13:47:43;15.75;;;7.15;;
70153;SDS011;57519;51.494;-2.626;2023-04-03T13:50:18;14.73;;;7.10;;
70153;SDS011;57519;51.494;-2.626;2023-04-03T13:52:51;14.40;;;6.63;;
70153;SDS011;57519;51.494;-2.626;2023-04-03T13:55:30;11.83;;;7.13;;
70153;SDS011;57519;51.494;-2.626;2023-04-03T13:58:02;12.20;;;6.65;;
70153;SDS011;57519;51.494;-2.626;2023-04-03T14:02:59;15.50;;;6.45;;
70153;SDS011;57519;51.494;-2.626;2023-04-03T14:05:34;16.13;;;6.85;;
70153;SDS011;57519;51.494;-2.626;2023-04-03T14:08:02;17.77;;;7.73;;
70153;SDS011;57519;51.494;-2.626;2023-04-03T14:10:31;16.70;;;7.68;;
70153;SDS011;57519;51.494;-2.626;2023-04-03T14:12:59;12.50;;;7.33;;
70153;SDS011;57519;51.494;-2.626;2023-04-03T14:15:26;17.02;;;7.82;;
70153;SDS011;57519;51.494;-2.626;2023-04-03T14:17:53;17.08;;;7.35;;
70153;SDS011;57519;51.494;-2.626;2023-04-03T14:20:24;16.33;;;7.40;;
70153;SDS011;57519;51.494;-2.626;2023-04-03T14:22:53;17.10;;;7.33;;
70153;SDS011;57519;51.494;-2.626;2023-04-03T14:25:20;18.23;;;7.05;;
70153;SDS011;57519;51.494;-2.626;2023-04-03T14:27:48;13.48;;;7.22;;
70153;SDS011;57519;51.494;-2.626;2023-04-03T14:32:55;13.88;;;7.30;;
70153;SDS011;57519;51.494;-2.626;2023-04-03T14:35:30;13.60;;;6.70;;
70153;SDS011;57519;51.494;-2.626;2023-04-03T14:37:55;14.90;;;6.90;;
70153;SDS011;57519;51.494;-2.626;2023-04-03T14:40:23;19.07;;;7.33;;
70153;SDS011;57519;51.494;-2.626;2023-04-03T14:42:51;19.08;;;8.38;;
70153;SDS011;57519;51.494;-2.626;2023-04-03T14:45:27;17.73;;;7.47;;
70153;SDS011;57519;51.494;-2.626;2023-04-03T14:47:55;13.10;;;6.33;;
70153;SDS011;57519;51.494;-2.626;2023-04-03T14:50:25;26.58;;;8.93;;
70153;SDS011;57519;51.494;-2.626;2023-04-03T14:52:56;15.25;;;7.43;;
70153;SDS011;57519;51.494;-2.626;2023-04-03T14:55:24;12.40;;;6.80;;
70153;SDS011;57519;51.494;-2.626;2023-04-03T14:57:52;22.48;;;9.00;;
70153;SDS011;57519;51.494;-2.626;2023-04-03T15:00:22;16.10;;;7.47;;
70153;SDS011;57519;51.494;-2.626;2023-04-03T15:02:48;14.57;;;6.45;;
70153;SDS011;57519;51.494;-2.626;2023-04-03T15:05:14;13.95;;;6.97;;
70153;SDS011;57519;51.494;-2.626;2023-04-03T15:07:41;12.90;;;7.18;;
70153;SDS011;57519;51.494;-2.626;2023-04-03T15:10:17;13.20;;;7.10;;
70153;SDS011;57519;51.494;-2.626;2023-04-03T15:12:48;13.98;;;6.78;;
70153;SDS011;57519;51.494;-2.626;2023-04-03T15:15:15;22.73;;;8.23;;
70153;SDS011;57519;51.494;-2.626;2023-04-03T15:17:42;15.15;;;8.65;;
70153;SDS011;57519;51.494;-2.626;2023-04-03T15:20:12;16.90;;;7.60;;
70153;SDS011;57519;51.494;-2.626;2023-04-03T15:22:49;15.83;;;8.33;;
70153;SDS011;57519;51.494;-2.626;2023-04-03T15:25:14;16.25;;;7.28;;
70153;SDS011;57519;51.494;-2.626;2023-04-03T15:27:40;16.98;;;8.07;;
70153;SDS011;57519;51.494;-2.626;2023-04-03T15:30:11;17.03;;;7.90;;
70153;SDS011;57519;51.494;-2.626;2023-04-03T15:32:40;13.60;;;7.85;;
70153;SDS011;57519;51.494;-2.626;2023-04-03T15:35:06;10.67;;;6.17;;
70153;SDS011;57519;51.494;-2.626;2023-04-03T15:37:32;11.87;;;7.07;;
70153;SDS011;57519;51.494;-2.626;2023-04-03T15:39:58;17.50;;;7.80;;
70153;SDS011;57519;51.494;-2.626;2023-04-03T15:42:27;19.23;;;8.02;;
70153;SDS011;57519;51.494;-2.626;2023-04-03T15:44:56;31.33;;;9.57;;
70153;SDS011;57519;51.494;-2.626;2023-04-03T15:47:24;19.85;;;7.82;;
70153;SDS011;57519;51.494;-2.626;2023-04-03T15:56:19;15.82;;;7.72;;
70153;SDS011;57519;51.494;-2.626;2023-04-03T15:58:45;24.00;;;8.43;;
70153;SDS011;57519;51.494;-2.626;2023-04-03T16:01:15;26.67;;;9.32;;
70153;SDS011;57519;51.494;-2.626;2023-04-03T16:03:43;15.73;;;7.45;;
70153;SDS011;57519;51.494;-2.626;2023-04-03T16:06:13;18.07;;;8.53;;
70153;SDS011;57519;51.494;-2.626;2023-04-03T16:08:40;16.00;;;7.97;;
70153;SDS011;57519;51.494;-2.626;2023-04-03T16:11:07;21.42;;;8.10;;
70153;SDS011;57519;51.494;-2.626;2023-04-03T16:13:33;20.15;;;8.25;;
70153;SDS011;57519;51.494;-2.626;2023-04-03T16:15:58;22.50;;;9.50;;
70153;SDS011;57519;51.494;-2.626;2023-04-03T16:18:26;16.40;;;7.55;;
70153;SDS011;57519;51.494;-2.626;2023-04-03T16:20:53;15.93;;;8.13;;
70153;SDS011;57519;51.494;-2.626;2023-04-03T16:23:18;11.53;;;6.50;;
70153;SDS011;57519;51.494;-2.626;2023-04-03T16:26:05;15.02;;;7.45;;
70153;SDS011;57519;51.494;-2.626;2023-04-03T16:28:33;16.45;;;8.05;;
70153;SDS011;57519;51.494;-2.626;2023-04-03T16:30:59;19.73;;;8.07;;
70153;SDS011;57519;51.494;-2.626;2023-04-03T16:33:37;16.40;;;7.18;;
70153;SDS011;57519;51.494;-2.626;2023-04-03T16:36:03;12.60;;;7.28;;
70153;SDS011;57519;51.494;-2.626;2023-04-03T16:38:30;14.33;;;7.10;;
70153;SDS011;57519;51.494;-2.626;2023-04-03T16:40:55;11.85;;;7.05;;
70153;SDS011;57519;51.494;-2.626;2023-04-03T16:43:30;15.38;;;7.47;;
70153;SDS011;57519;51.494;-2.626;2023-04-03T16:46:00;18.10;;;8.98;;
70153;SDS011;57519;51.494;-2.626;2023-04-03T16:48:27;12.00;;;7.33;;
70153;SDS011;57519;51.494;-2.626;2023-04-03T16:50:56;21.65;;;8.98;;
70153;SDS011;57519;51.494;-2.626;2023-04-03T16:53:22;13.80;;;7.40;;
70153;SDS011;57519;51.494;-2.626;2023-04-03T16:55:51;17.97;;;8.07;;
70153;SDS011;57519;51.494;-2.626;2023-04-03T16:58:17;17.10;;;7.95;;
70153;SDS011;57519;51.494;-2.626;2023-04-03T17:00:46;15.38;;;7.72;;
70153;SDS011;57519;51.494;-2.626;2023-04-03T17:03:12;15.35;;;8.45;;
70153;SDS011;57519;51.494;-2.626;2023-04-03T17:05:38;18.70;;;8.27;;
70153;SDS011;57519;51.494;-2.626;2023-04-03T17:08:03;15.73;;;8.37;;
70153;SDS011;57519;51.494;-2.626;2023-04-03T17:10:32;24.63;;;8.50;;
70153;SDS011;57519;51.494;-2.626;2023-04-03T17:13:02;15.13;;;7.45;;
70153;SDS011;57519;51.494;-2.626;2023-04-03T17:15:28;22.25;;;8.88;;
70153;SDS011;57519;51.494;-2.626;2023-04-03T17:17:56;19.53;;;8.87;;
70153;SDS011;57519;51.494;-2.626;2023-04-03T17:20:22;15.88;;;7.88;;
70153;SDS011;57519;51.494;-2.626;2023-04-03T17:22:50;28.20;;;9.40;;
70153;SDS011;57519;51.494;-2.626;2023-04-03T17:25:16;13.00;;;7.07;;
70153;SDS011;57519;51.494;-2.626;2023-04-03T17:27:51;17.63;;;8.10;;
70153;SDS011;57519;51.494;-2.626;2023-04-03T17:30:16;19.02;;;8.98;;
70153;SDS011;57519;51.494;-2.626;2023-04-03T17:32:42;21.07;;;8.20;;
70153;SDS011;57519;51.494;-2.626;2023-04-03T17:35:10;10.95;;;7.53;;
70153;SDS011;57519;51.494;-2.626;2023-04-03T17:37:36;12.90;;;7.80;;
70153;SDS011;57519;51.494;-2.626;2023-04-03T17:40:05;20.23;;;8.98;;
70153;SDS011;57519;51.494;-2.626;2023-04-03T17:51:50;24.17;;;8.18;;
70153;SDS011;57519;51.494;-2.626;2023-04-03T17:54:39;20.23;;;8.98;;
70153;SDS011;57519;51.494;-2.626;2023-04-03T17:57:08;15.73;;;7.33;;
70153;SDS011;57519;51.494;-2.626;2023-04-03T17:59:34;20.58;;;8.85;;
70153;SDS011;57519;51.494;-2.626;2023-04-03T18:01:59;22.10;;;9.73;;
70153;SDS011;57519;51.494;-2.626;2023-04-03T18:04:25;21.47;;;10.27;;
70153;SDS011;57519;51.494;-2.626;2023-04-03T18:06:53;23.35;;;9.27;;
70153;SDS011;57519;51.494;-2.626;2023-04-03T18:09:26;25.42;;;9.10;;
70153;SDS011;57519;51.494;-2.626;2023-04-03T18:11:55;14.50;;;7.50;;
70153;SDS011;57519;51.494;-2.626;2023-04-03T18:14:23;20.20;;;8.52;;
70153;SDS011;57519;51.494;-2.626;2023-04-03T18:16:51;14.80;;;8.35;;
70153;SDS011;57519;51.494;-2.626;2023-04-03T18:19:17;20.98;;;8.35;;
70153;SDS011;57519;51.494;-2.626;2023-04-03T18:21:45;22.00;;;9.50;;
70153;SDS011;57519;51.494;-2.626;2023-04-03T18:24:12;27.52;;;10.02;;
70153;SDS011;57519;51.494;-2.626;2023-04-03T18:26:42;25.75;;;8.90;;
70153;SDS011;57519;51.494;-2.626;2023-04-03T18:29:12;17.20;;;8.55;;
70153;SDS011;57519;51.494;-2.626;2023-04-03T18:31:39;24.02;;;9.48;;
70153;SDS011;57519;51.494;-2.626;2023-04-03T18:34:08;13.33;;;7.60;;
70153;SDS011;57519;51.494;-2.626;2023-04-03T18:36:33;17.92;;;9.00;;
70153;SDS011;57519;51.494;-2.626;2023-04-03T18:38:59;19.10;;;8.97;;
70153;SDS011;57519;51.494;-2.626;2023-04-03T18:41:29;24.25;;;8.88;;
70153;SDS011;57519;51.494;-2.626;2023-04-03T18:44:00;20.75;;;8.85;;
70153;SDS011;57519;51.494;-2.626;2023-04-03T18:46:28;29.20;;;10.73;;
70153;SDS011;57519;51.494;-2.626;2023-04-03T18:49:00;18.73;;;8.38;;
70153;SDS011;57519;51.494;-2.626;2023-04-03T18:51:28;15.00;;;9.07;;
70153;SDS011;57519;51.494;-2.626;2023-04-03T18:53:57;19.92;;;10.70;;
70153;SDS011;57519;51.494;-2.626;2023-04-03T18:56:25;19.07;;;10.07;;
70153;SDS011;57519;51.494;-2.626;2023-04-03T18:59:17;29.33;;;11.20;;
70153;SDS011;57519;51.494;-2.626;2023-04-03T19:01:43;22.98;;;11.07;;
70153;SDS011;57519;51.494;-2.626;2023-04-03T19:04:08;21.83;;;11.50;;
70153;SDS011;57519;51.494;-2.626;2023-04-03T19:06:34;23.33;;;11.17;;
70153;SDS011;57519;51.494;-2.626;2023-04-03T19:09:02;24.30;;;11.50;;
70153;SDS011;57519;51.494;-2.626;2023-04-03T19:11:35;32.53;;;13.18;;
70153;SDS011;57519;51.494;-2.626;2023-04-03T19:14:01;22.25;;;11.75;;
70153;SDS011;57519;51.494;-2.626;2023-04-03T19:16:36;25.52;;;11.38;;
70153;SDS011;57519;51.494;-2.626;2023-04-03T19:43:50;22.25;;;9.70;;
70153;SDS011;57519;51.494;-2.626;2023-04-03T19:49:39;18.35;;;8.88;;
70153;SDS011;57519;51.494;-2.626;2023-04-03T20:01:52;34.08;;;11.85;;
70153;SDS011;57519;51.494;-2.626;2023-04-03T20:17:58;21.93;;;10.97;;
70153;SDS011;57519;51.494;-2.626;2023-04-03T20:23:54;22.35;;;10.73;;
70153;SDS011;57519;51.494;-2.626;2023-04-03T20:26:24;24.67;;;11.70;;
70153;SDS011;57519;51.494;-2.626;2023-04-03T20:29:11;32.50;;;12.85;;
70153;SDS011;57519;51.494;-2.626;2023-04-03T20:31:39;26.77;;;11.47;;
70153;SDS011;57519;51.494;-2.626;2023-04-03T20:34:06;69.80;;;19.27;;
70153;SDS011;57519;51.494;-2.626;2023-04-03T20:36:32;19.42;;;10.45;;
70153;SDS011;57519;51.494;-2.626;2023-04-03T20:39:00;20.90;;;11.38;;
70153;SDS011;57519;51.494;-2.626;2023-04-03T20:41:30;29.65;;;12.30;;
70153;SDS011;57519;51.494;-2.626;2023-04-03T20:44:08;17.73;;;10.97;;
70153;SDS011;57519;51.494;-2.626;2023-04-03T20:46:45;27.45;;;11.35;;
70153;SDS011;57519;51.494;-2.626;2023-04-03T20:49:10;24.67;;;11.82;;
70153;SDS011;57519;51.494;-2.626;2023-04-03T20:56:47;23.23;;;10.32;;
70153;SDS011;57519;51.494;-2.626;2023-04-03T21:02:35;22.05;;;10.73;;
70153;SDS011;57519;51.494;-2.626;2023-04-03T21:05:08;20.03;;;10.33;;
70153;SDS011;57519;51.494;-2.626;2023-04-03T21:19:31;25.97;;;9.80;;
70153;SDS011;57519;51.494;-2.626;2023-04-03T21:22:00;11.93;;;6.83;;
70153;SDS011;57519;51.494;-2.626;2023-04-03T21:28:03;13.13;;;7.10;;
70153;SDS011;57519;51.494;-2.626;2023-04-03T21:33:47;34.97;;;10.85;;
70153;SDS011;57519;51.494;-2.626;2023-04-03T21:36:13;11.27;;;6.83;;
70153;SDS011;57519;51.494;-2.626;2023-04-03T21:38:39;11.00;;;7.18;;
70153;SDS011;57519;51.494;-2.626;2023-04-03T21:41:04;9.50;;;6.23;;